大分空港の過去48時間の天気

大分空港 (Oita)

現在時刻: 1/23 13:16 JST (1/23 04:16 UTC) 以下の時間は現地時間です。

過去48時間のMETAR気象情報
時間 風向 風速(m/s) 視程 気温(℃) 湿度(%) 気圧(hPa) 天気現象
23 13:00 西北西 8 10km以上 6 70 1016 弱いしゅう雨
23 12:00 西北西 7 10km以上 6 76 1017 弱いしゅう雨
23 11:11 西北西 8 10km以上 8 53 1017
23 11:00 西北西 8 10km以上 9 50 1017
23 10:14 西北西 8 10km以上 9 53 1016
23 10:00 西北西 9 10km以上 8 53 1016
23 09:00 南西 2 10km以上 8 61 1016
23 08:00 不定 1 8,000m 5 87 1015
23 07:00 西南西 2 7,000m 5 87 1014
22 22:00 西北西 3 10km以上 4 87 1014
22 21:00 西 4 10km以上 3 93 1014
22 20:00 西 4 10km以上 3 93 1014
22 19:00 西 4 10km以上 4 87 1014
22 18:00 西 4 10km以上 3 93 1014
22 17:00 西 2 10km以上 4 93 1013
22 16:00 西 3 10km以上 5 87 1012
22 15:00 北西 3 10km以上 5 87 1012
22 14:00 北北西 5 10km以上 4 93 1012 弱いしゅう雨
22 13:00 北西 5 8,000m 2 100 1012 弱いしゅう雨 弱いしゅう雪
22 12:32 北西 4 10km以上 3 93 1012 弱いしゅう雨
22 12:00 北西 3 5,000m 3 93 1013 しゅう雨 もや
22 11:42 北北西 4 8,000m 3 100 1014 弱いしゅう雨
22 11:26 北北西 4 4,000m 4 93 1014 弱いしゅう雨 もや
22 11:00 5 5,000m 5 87 1014 弱いしゅう雨 もや
22 10:47 5 5,000m 4 93 1015 弱いしゅう雨 もや
22 10:27 5 5,000m 4 93 1015 しゅう雨 もや
22 10:09 8 5,000m 5 87 1015 弱いしゅう雨 もや
22 09:46 6 4,000m 5 93 1016 しゅう雨 もや
22 09:08 北北西 5 3,000m 5 100 1015 しゅう雨 もや
22 09:00 北北西 5 3,000m 6 93 1015 弱いしゅう雨 もや
22 08:00 北北西 3 3,000m 6 93 1015 弱いしゅう雨 もや
22 07:34 北北西 3 4,000m 6 93 1014 弱いしゅう雨 もや
22 07:00 北北西 4 7,000m 6 93 1014 弱いしゅう雨
RJFO 230400Z 29016KT 9999 -SHRA FEW015 SCT020 BKN030 06/01 Q1016
RJFO 230300Z 30013G23KT 260V330 9999 -SHRA FEW010 SCT020 BKN030 06/02 Q1017
RJFO 230211Z 29016G26KT 260V320 9999 FEW030 BKN040 08/M01 Q1017 RMK 1CU030 5CU040 A3003
RJFO 230200Z 29016KT 9999 FEW035 SCT040 09/M01 Q1017
RJFO 230114Z 29015G26KT 250V310 9999 FEW035 09/M00 Q1016 RMK 2CU035 A3002
RJFO 230100Z 29018KT 250V320 9999 FEW035 08/M01 Q1016
RJFO 230000Z 23004KT 200V280 9999 FEW030 08/01 Q1016
RJFO 222300Z VRB02KT 8000 FEW030 05/03 Q1015
RJFO 222200Z 24003KT 7000 FEW035 05/03 Q1014
RJFO 221300Z 29006KT 9999 FEW020 04/02 Q1014
RJFO 221200Z 28007KT 9999 FEW020 03/02 Q1014
RJFO 221100Z 26007KT 9999 FEW015 SCT/// 03/02 Q1014
RJFO 221000Z 26007KT 9999 FEW015 SCT/// 04/02 Q1014
RJFO 220900Z 27007KT 9999 FEW006 SCT010 BKN/// 03/02 Q1014
RJFO 220800Z 27004KT 240V300 9999 FEW006 SCT009 BKN015 04/03 Q1013
RJFO 220700Z 27005KT 250V310 9999 FEW006 SCT060 BKN/// 05/03 Q1012
RJFO 220600Z 31005KT 230V340 9999 FEW005 SCT040 BKN050 05/03 Q1012
RJFO 220500Z 34010KT 9999 -SHRA FEW006 SCT020 BKN030 04/03 Q1012
RJFO 220400Z 32009KT 8000 -SHRASN FEW006 BKN010 BKN015 02/02 Q1012
RJFO 220332Z 32007KT 9999 -SHRA FEW007 SCT010 BKN015 03/02 Q1012 RMK 1ST007 4ST010 6CU015 A2991
RJFO 220300Z 32006KT 5000 SHRA BR FEW007 SCT010 BKN015 03/02 Q1013
RJFO 220242Z 33007KT 8000 -SHRA FEW006 SCT010 BKN020 03/03 Q1014 RMK 1ST006 4ST010 7CU020 A2995
RJFO 220226Z 33007KT 4000 -SHRA BR FEW006 SCT010 BKN020 04/03 Q1014 RMK 1ST006 4ST010 7CU020 A2996
RJFO 220200Z 36010KT 5000 -SHRA BR FEW008 SCT015 BKN020 05/03 Q1014
RJFO 220147Z 36010KT 5000 -SHRA BR FEW008 SCT015 BKN020 04/03 Q1015 RMK 1ST008 3CU015 7CU020 A2998
RJFO 220127Z 36010KT 5000 SHRA BR FEW008 SCT010 BKN020 04/03 Q1015 RMK 1ST008 3ST010 7CU020 A2999
RJFO 220109Z 36015KT 5000 -SHRA BR FEW006 SCT010 BKN020 05/03 Q1015 RMK 1ST006 3ST010 7CU020 A3000
RJFO 220046Z 36011KT 4000 SHRA BR FEW006 SCT010 BKN020 05/04 Q1016 RMK 1ST006 4ST010 7CU020 A3000
RJFO 220008Z 34009KT 3000 SHRA BR FEW008 BKN015 BKN025 05/05 Q1015 RMK 1ST008 5CU015 7CU025 A3000
RJFO 220000Z 34009KT 3000 -SHRA BR FEW008 BKN015 BKN025 06/05 Q1015
RJFO 212300Z 33005KT 260V010 3000 -SHRA BR FEW020 BKN025 BKN035 06/05 Q1015
RJFO 212234Z 33006KT 4000 -SHRA BR FEW020 SCT025 BKN035 06/05 Q1014 RMK 1CU020 4CU025 7CU035 A2997
RJFO 212200Z 34007KT 7000 -SHRA FEW025 BKN035 BKN045 06/05 Q1014